sensor_id;sensor_type;location;lat;lon;timestamp;P1;durP1;ratioP1;P2;durP2;ratioP2
32130;SDS011;18639;50.716;7.086;2022-10-31T00:01:53;2.95;;;1.25;;
32130;SDS011;18639;50.716;7.086;2022-10-31T00:04:18;2.47;;;1.45;;
32130;SDS011;18639;50.716;7.086;2022-10-31T00:06:44;2.67;;;1.60;;
32130;SDS011;18639;50.716;7.086;2022-10-31T00:09:09;2.75;;;1.35;;
32130;SDS011;18639;50.716;7.086;2022-10-31T00:11:35;2.75;;;1.10;;
32130;SDS011;18639;50.716;7.086;2022-10-31T00:14:00;1.42;;;1.02;;
32130;SDS011;18639;50.716;7.086;2022-10-31T00:16:27;2.60;;;1.65;;
32130;SDS011;18639;50.716;7.086;2022-10-31T00:18:56;4.68;;;1.52;;
32130;SDS011;18639;50.716;7.086;2022-10-31T00:21:23;2.83;;;1.45;;
32130;SDS011;18639;50.716;7.086;2022-10-31T00:23:50;3.88;;;1.27;;
32130;SDS011;18639;50.716;7.086;2022-10-31T00:26:15;4.03;;;1.52;;
32130;SDS011;18639;50.716;7.086;2022-10-31T00:28:40;2.47;;;1.63;;
32130;SDS011;18639;50.716;7.086;2022-10-31T00:31:07;2.72;;;1.58;;
32130;SDS011;18639;50.716;7.086;2022-10-31T00:33:34;3.72;;;1.23;;
32130;SDS011;18639;50.716;7.086;2022-10-31T00:36:02;4.68;;;1.90;;
32130;SDS011;18639;50.716;7.086;2022-10-31T00:38:27;4.25;;;1.35;;
32130;SDS011;18639;50.716;7.086;2022-10-31T00:40:53;3.78;;;1.42;;
32130;SDS011;18639;50.716;7.086;2022-10-31T00:43:18;4.13;;;1.85;;
32130;SDS011;18639;50.716;7.086;2022-10-31T00:45:44;2.63;;;1.15;;
32130;SDS011;18639;50.716;7.086;2022-10-31T00:48:09;4.80;;;1.45;;
32130;SDS011;18639;50.716;7.086;2022-10-31T00:50:35;4.53;;;1.52;;
32130;SDS011;18639;50.716;7.086;2022-10-31T00:53:00;3.95;;;1.73;;
32130;SDS011;18639;50.716;7.086;2022-10-31T00:55:25;2.53;;;1.30;;
32130;SDS011;18639;50.716;7.086;2022-10-31T00:57:51;3.00;;;1.40;;
32130;SDS011;18639;50.716;7.086;2022-10-31T01:00:16;3.22;;;1.27;;
32130;SDS011;18639;50.716;7.086;2022-10-31T01:02:41;3.00;;;1.42;;
32130;SDS011;18639;50.716;7.086;2022-10-31T01:05:07;3.65;;;1.50;;
32130;SDS011;18639;50.716;7.086;2022-10-31T01:07:35;2.95;;;1.85;;
32130;SDS011;18639;50.716;7.086;2022-10-31T01:10:01;3.17;;;1.52;;
32130;SDS011;18639;50.716;7.086;2022-10-31T01:12:26;2.75;;;1.20;;
32130;SDS011;18639;50.716;7.086;2022-10-31T01:14:52;3.55;;;1.60;;
32130;SDS011;18639;50.716;7.086;2022-10-31T01:17:17;7.00;;;1.92;;
32130;SDS011;18639;50.716;7.086;2022-10-31T01:19:42;2.53;;;1.23;;
32130;SDS011;18639;50.716;7.086;2022-10-31T01:22:08;2.83;;;1.58;;
32130;SDS011;18639;50.716;7.086;2022-10-31T01:24:33;3.80;;;1.60;;
32130;SDS011;18639;50.716;7.086;2022-10-31T01:26:59;3.17;;;1.40;;
32130;SDS011;18639;50.716;7.086;2022-10-31T01:29:24;3.50;;;1.50;;
32130;SDS011;18639;50.716;7.086;2022-10-31T01:31:49;1.85;;;1.17;;
32130;SDS011;18639;50.716;7.086;2022-10-31T01:34:15;2.47;;;1.40;;
32130;SDS011;18639;50.716;7.086;2022-10-31T01:36:42;2.97;;;1.40;;
32130;SDS011;18639;50.716;7.086;2022-10-31T01:39:13;1.73;;;1.20;;
32130;SDS011;18639;50.716;7.086;2022-10-31T01:41:41;2.10;;;1.10;;
32130;SDS011;18639;50.716;7.086;2022-10-31T01:46:40;1.88;;;1.02;;
32130;SDS011;18639;50.716;7.086;2022-10-31T01:49:14;2.58;;;1.48;;
32130;SDS011;18639;50.716;7.086;2022-10-31T01:51:45;2.10;;;1.15;;
32130;SDS011;18639;50.716;7.086;2022-10-31T01:54:16;3.83;;;1.42;;
32130;SDS011;18639;50.716;7.086;2022-10-31T01:56:47;2.63;;;1.63;;
32130;SDS011;18639;50.716;7.086;2022-10-31T01:59:15;3.55;;;1.65;;
32130;SDS011;18639;50.716;7.086;2022-10-31T02:01:45;3.20;;;1.70;;
32130;SDS011;18639;50.716;7.086;2022-10-31T02:04:11;3.22;;;1.77;;
32130;SDS011;18639;50.716;7.086;2022-10-31T02:06:45;2.13;;;1.38;;
32130;SDS011;18639;50.716;7.086;2022-10-31T02:09:14;2.58;;;1.30;;
32130;SDS011;18639;50.716;7.086;2022-10-31T02:11:40;7.47;;;1.45;;
32130;SDS011;18639;50.716;7.086;2022-10-31T02:14:07;4.85;;;1.70;;
32130;SDS011;18639;50.716;7.086;2022-10-31T02:16:33;3.30;;;1.70;;
32130;SDS011;18639;50.716;7.086;2022-10-31T02:18:58;2.63;;;1.20;;
32130;SDS011;18639;50.716;7.086;2022-10-31T02:21:38;1.52;;;1.10;;
32130;SDS011;18639;50.716;7.086;2022-10-31T02:27:07;7.22;;;1.40;;
32130;SDS011;18639;50.716;7.086;2022-10-31T02:29:53;2.33;;;1.45;;
32130;SDS011;18639;50.716;7.086;2022-10-31T02:32:22;4.57;;;1.48;;
32130;SDS011;18639;50.716;7.086;2022-10-31T02:34:56;6.93;;;1.42;;
32130;SDS011;18639;50.716;7.086;2022-10-31T02:37:37;2.72;;;1.42;;
32130;SDS011;18639;50.716;7.086;2022-10-31T02:40:25;3.42;;;1.60;;
32130;SDS011;18639;50.716;7.086;2022-10-31T02:42:58;3.00;;;1.60;;
32130;SDS011;18639;50.716;7.086;2022-10-31T02:45:29;2.33;;;1.30;;
32130;SDS011;18639;50.716;7.086;2022-10-31T02:48:02;2.22;;;1.23;;
32130;SDS011;18639;50.716;7.086;2022-10-31T02:50:34;2.70;;;1.25;;
32130;SDS011;18639;50.716;7.086;2022-10-31T02:53:02;3.83;;;1.73;;
32130;SDS011;18639;50.716;7.086;2022-10-31T02:57:54;4.30;;;1.77;;
32130;SDS011;18639;50.716;7.086;2022-10-31T03:00:26;3.58;;;1.23;;
32130;SDS011;18639;50.716;7.086;2022-10-31T03:06:03;2.63;;;1.33;;
32130;SDS011;18639;50.716;7.086;2022-10-31T03:08:35;8.38;;;1.70;;
32130;SDS011;18639;50.716;7.086;2022-10-31T03:11:10;8.05;;;1.65;;
32130;SDS011;18639;50.716;7.086;2022-10-31T03:13:46;3.05;;;1.10;;
32130;SDS011;18639;50.716;7.086;2022-10-31T03:19:00;5.15;;;1.90;;
32130;SDS011;18639;50.716;7.086;2022-10-31T03:24:13;2.60;;;1.40;;
32130;SDS011;18639;50.716;7.086;2022-10-31T03:26:41;8.50;;;1.50;;
32130;SDS011;18639;50.716;7.086;2022-10-31T03:29:12;2.35;;;1.20;;
32130;SDS011;18639;50.716;7.086;2022-10-31T03:31:45;2.17;;;1.00;;
32130;SDS011;18639;50.716;7.086;2022-10-31T03:34:15;1.83;;;1.13;;
32130;SDS011;18639;50.716;7.086;2022-10-31T03:36:42;5.55;;;1.45;;
32130;SDS011;18639;50.716;7.086;2022-10-31T03:39:11;8.00;;;2.08;;
32130;SDS011;18639;50.716;7.086;2022-10-31T03:41:41;4.10;;;1.40;;
32130;SDS011;18639;50.716;7.086;2022-10-31T03:44:19;2.97;;;1.42;;
32130;SDS011;18639;50.716;7.086;2022-10-31T03:46:47;2.80;;;1.38;;
32130;SDS011;18639;50.716;7.086;2022-10-31T03:49:13;4.03;;;1.48;;
32130;SDS011;18639;50.716;7.086;2022-10-31T03:51:40;2.00;;;1.20;;
32130;SDS011;18639;50.716;7.086;2022-10-31T03:54:13;4.28;;;1.20;;
32130;SDS011;18639;50.716;7.086;2022-10-31T03:56:52;3.90;;;1.30;;
32130;SDS011;18639;50.716;7.086;2022-10-31T03:59:24;2.05;;;1.10;;
32130;SDS011;18639;50.716;7.086;2022-10-31T04:01:57;2.75;;;1.58;;
32130;SDS011;18639;50.716;7.086;2022-10-31T04:04:26;5.22;;;1.33;;
32130;SDS011;18639;50.716;7.086;2022-10-31T04:06:54;3.17;;;1.48;;
32130;SDS011;18639;50.716;7.086;2022-10-31T04:09:22;3.70;;;1.52;;
32130;SDS011;18639;50.716;7.086;2022-10-31T04:11:50;2.20;;;1.23;;
32130;SDS011;18639;50.716;7.086;2022-10-31T04:14:18;3.25;;;1.10;;
32130;SDS011;18639;50.716;7.086;2022-10-31T04:16:43;1.50;;;1.05;;
32130;SDS011;18639;50.716;7.086;2022-10-31T04:19:12;2.47;;;1.20;;
32130;SDS011;18639;50.716;7.086;2022-10-31T04:21:39;2.33;;;1.33;;
32130;SDS011;18639;50.716;7.086;2022-10-31T04:24:04;2.47;;;1.35;;
32130;SDS011;18639;50.716;7.086;2022-10-31T04:26:30;2.70;;;1.38;;
32130;SDS011;18639;50.716;7.086;2022-10-31T04:28:55;2.45;;;1.35;;
32130;SDS011;18639;50.716;7.086;2022-10-31T04:31:20;2.25;;;1.42;;
32130;SDS011;18639;50.716;7.086;2022-10-31T04:33:46;3.40;;;1.60;;
32130;SDS011;18639;50.716;7.086;2022-10-31T04:36:11;3.20;;;1.52;;
32130;SDS011;18639;50.716;7.086;2022-10-31T04:38:37;3.22;;;1.38;;
32130;SDS011;18639;50.716;7.086;2022-10-31T04:41:02;4.65;;;1.80;;
32130;SDS011;18639;50.716;7.086;2022-10-31T04:43:27;3.83;;;1.50;;
32130;SDS011;18639;50.716;7.086;2022-10-31T04:45:52;5.00;;;1.38;;
32130;SDS011;18639;50.716;7.086;2022-10-31T04:48:18;2.60;;;1.40;;
32130;SDS011;18639;50.716;7.086;2022-10-31T04:50:43;2.08;;;1.08;;
32130;SDS011;18639;50.716;7.086;2022-10-31T04:53:08;2.70;;;1.30;;
32130;SDS011;18639;50.716;7.086;2022-10-31T04:55:34;2.90;;;1.40;;
32130;SDS011;18639;50.716;7.086;2022-10-31T04:58:00;2.58;;;1.30;;
32130;SDS011;18639;50.716;7.086;2022-10-31T05:00:26;3.78;;;1.45;;
32130;SDS011;18639;50.716;7.086;2022-10-31T05:02:52;3.80;;;1.17;;
32130;SDS011;18639;50.716;7.086;2022-10-31T05:05:21;2.58;;;1.40;;
32130;SDS011;18639;50.716;7.086;2022-10-31T05:07:48;3.50;;;1.13;;
32130;SDS011;18639;50.716;7.086;2022-10-31T05:10:15;2.70;;;1.35;;
32130;SDS011;18639;50.716;7.086;2022-10-31T05:12:55;3.70;;;1.60;;
32130;SDS011;18639;50.716;7.086;2022-10-31T05:15:23;2.53;;;1.50;;
32130;SDS011;18639;50.716;7.086;2022-10-31T05:17:50;4.20;;;1.70;;
32130;SDS011;18639;50.716;7.086;2022-10-31T05:20:16;2.30;;;1.33;;
32130;SDS011;18639;50.716;7.086;2022-10-31T05:22:47;2.47;;;1.30;;
32130;SDS011;18639;50.716;7.086;2022-10-31T05:25:16;2.25;;;1.38;;
32130;SDS011;18639;50.716;7.086;2022-10-31T05:27:43;3.10;;;1.20;;
32130;SDS011;18639;50.716;7.086;2022-10-31T05:30:10;3.17;;;1.40;;
32130;SDS011;18639;50.716;7.086;2022-10-31T05:32:43;2.67;;;1.20;;
32130;SDS011;18639;50.716;7.086;2022-10-31T05:35:11;3.33;;;1.10;;
32130;SDS011;18639;50.716;7.086;2022-10-31T05:37:41;3.78;;;1.52;;
32130;SDS011;18639;50.716;7.086;2022-10-31T05:40:09;3.28;;;1.40;;
32130;SDS011;18639;50.716;7.086;2022-10-31T05:42:37;3.58;;;1.67;;
32130;SDS011;18639;50.716;7.086;2022-10-31T05:45:04;5.32;;;1.90;;
32130;SDS011;18639;50.716;7.086;2022-10-31T05:47:30;2.83;;;1.17;;
32130;SDS011;18639;50.716;7.086;2022-10-31T05:49:56;2.92;;;1.50;;
32130;SDS011;18639;50.716;7.086;2022-10-31T05:52:22;3.08;;;1.52;;
32130;SDS011;18639;50.716;7.086;2022-10-31T05:54:47;5.70;;;1.60;;
32130;SDS011;18639;50.716;7.086;2022-10-31T05:57:12;6.25;;;1.40;;
32130;SDS011;18639;50.716;7.086;2022-10-31T05:59:37;3.53;;;1.65;;
32130;SDS011;18639;50.716;7.086;2022-10-31T06:02:03;4.65;;;1.40;;
32130;SDS011;18639;50.716;7.086;2022-10-31T06:04:28;4.63;;;1.95;;
32130;SDS011;18639;50.716;7.086;2022-10-31T06:06:53;3.50;;;1.75;;
32130;SDS011;18639;50.716;7.086;2022-10-31T06:09:18;2.80;;;1.52;;
32130;SDS011;18639;50.716;7.086;2022-10-31T06:11:44;4.13;;;1.50;;
32130;SDS011;18639;50.716;7.086;2022-10-31T06:14:09;5.10;;;1.40;;
32130;SDS011;18639;50.716;7.086;2022-10-31T06:16:34;4.05;;;1.67;;
32130;SDS011;18639;50.716;7.086;2022-10-31T06:19:00;2.13;;;1.30;;
32130;SDS011;18639;50.716;7.086;2022-10-31T06:21:25;3.97;;;1.85;;
32130;SDS011;18639;50.716;7.086;2022-10-31T06:23:51;3.42;;;1.70;;
32130;SDS011;18639;50.716;7.086;2022-10-31T06:26:16;2.55;;;1.40;;
32130;SDS011;18639;50.716;7.086;2022-10-31T06:28:41;4.72;;;1.63;;
32130;SDS011;18639;50.716;7.086;2022-10-31T06:31:07;3.35;;;1.50;;
32130;SDS011;18639;50.716;7.086;2022-10-31T06:33:32;4.47;;;1.60;;
32130;SDS011;18639;50.716;7.086;2022-10-31T06:35:59;2.45;;;1.20;;
32130;SDS011;18639;50.716;7.086;2022-10-31T06:38:27;4.72;;;1.55;;
32130;SDS011;18639;50.716;7.086;2022-10-31T06:40:53;2.28;;;1.48;;
32130;SDS011;18639;50.716;7.086;2022-10-31T06:43:19;3.92;;;1.50;;
32130;SDS011;18639;50.716;7.086;2022-10-31T06:45:45;2.55;;;1.42;;
32130;SDS011;18639;50.716;7.086;2022-10-31T06:48:11;4.22;;;1.38;;
32130;SDS011;18639;50.716;7.086;2022-10-31T06:50:37;3.50;;;1.48;;
32130;SDS011;18639;50.716;7.086;2022-10-31T06:53:02;9.63;;;1.70;;
32130;SDS011;18639;50.716;7.086;2022-10-31T06:55:28;6.93;;;1.77;;
32130;SDS011;18639;50.716;7.086;2022-10-31T06:58:00;2.70;;;1.27;;
32130;SDS011;18639;50.716;7.086;2022-10-31T07:00:27;5.78;;;1.50;;
32130;SDS011;18639;50.716;7.086;2022-10-31T07:05:27;3.60;;;1.67;;
32130;SDS011;18639;50.716;7.086;2022-10-31T07:07:54;5.15;;;1.27;;
32130;SDS011;18639;50.716;7.086;2022-10-31T07:10:27;2.20;;;1.33;;
32130;SDS011;18639;50.716;7.086;2022-10-31T07:12:58;3.92;;;1.80;;
32130;SDS011;18639;50.716;7.086;2022-10-31T07:15:25;4.13;;;1.45;;
32130;SDS011;18639;50.716;7.086;2022-10-31T07:17:51;4.68;;;1.80;;
32130;SDS011;18639;50.716;7.086;2022-10-31T07:20:16;5.78;;;1.30;;
32130;SDS011;18639;50.716;7.086;2022-10-31T07:22:42;3.00;;;1.50;;
32130;SDS011;18639;50.716;7.086;2022-10-31T07:25:09;4.53;;;2.25;;
32130;SDS011;18639;50.716;7.086;2022-10-31T07:27:38;3.33;;;1.58;;
32130;SDS011;18639;50.716;7.086;2022-10-31T07:30:05;2.92;;;1.80;;
32130;SDS011;18639;50.716;7.086;2022-10-31T07:32:38;6.43;;;1.95;;
32130;SDS011;18639;50.716;7.086;2022-10-31T07:35:06;4.93;;;1.90;;
32130;SDS011;18639;50.716;7.086;2022-10-31T07:37:32;3.35;;;1.63;;
32130;SDS011;18639;50.716;7.086;2022-10-31T07:39:58;4.40;;;1.70;;
32130;SDS011;18639;50.716;7.086;2022-10-31T07:42:23;4.00;;;1.70;;
32130;SDS011;18639;50.716;7.086;2022-10-31T07:44:49;3.90;;;1.80;;
32130;SDS011;18639;50.716;7.086;2022-10-31T07:47:14;6.68;;;2.03;;
32130;SDS011;18639;50.716;7.086;2022-10-31T07:49:39;4.97;;;2.05;;
32130;SDS011;18639;50.716;7.086;2022-10-31T07:52:04;4.53;;;1.90;;
32130;SDS011;18639;50.716;7.086;2022-10-31T07:54:30;3.47;;;1.60;;
32130;SDS011;18639;50.716;7.086;2022-10-31T07:56:55;3.22;;;1.67;;
32130;SDS011;18639;50.716;7.086;2022-10-31T07:59:20;2.33;;;1.42;;
32130;SDS011;18639;50.716;7.086;2022-10-31T08:01:45;3.85;;;1.95;;
32130;SDS011;18639;50.716;7.086;2022-10-31T08:04:11;4.47;;;1.63;;
32130;SDS011;18639;50.716;7.086;2022-10-31T08:06:36;5.22;;;1.80;;
32130;SDS011;18639;50.716;7.086;2022-10-31T08:09:01;3.30;;;1.75;;
32130;SDS011;18639;50.716;7.086;2022-10-31T08:11:27;3.40;;;1.73;;
32130;SDS011;18639;50.716;7.086;2022-10-31T08:13:52;6.03;;;2.47;;
32130;SDS011;18639;50.716;7.086;2022-10-31T08:16:17;8.30;;;2.20;;
32130;SDS011;18639;50.716;7.086;2022-10-31T08:18:43;4.10;;;2.25;;
32130;SDS011;18639;50.716;7.086;2022-10-31T08:21:08;6.68;;;2.20;;
32130;SDS011;18639;50.716;7.086;2022-10-31T08:23:33;4.65;;;2.05;;
32130;SDS011;18639;50.716;7.086;2022-10-31T08:25:58;6.38;;;2.10;;
32130;SDS011;18639;50.716;7.086;2022-10-31T08:28:24;6.32;;;2.38;;
32130;SDS011;18639;50.716;7.086;2022-10-31T08:30:49;5.68;;;2.33;;
32130;SDS011;18639;50.716;7.086;2022-10-31T08:33:16;5.13;;;1.77;;
32130;SDS011;18639;50.716;7.086;2022-10-31T08:35:42;5.72;;;2.10;;
32130;SDS011;18639;50.716;7.086;2022-10-31T08:38:08;5.30;;;2.55;;
32130;SDS011;18639;50.716;7.086;2022-10-31T08:40:35;4.18;;;2.22;;
32130;SDS011;18639;50.716;7.086;2022-10-31T08:43:33;5.15;;;2.28;;
32130;SDS011;18639;50.716;7.086;2022-10-31T08:45:52;9.27;;;2.55;;
32130;SDS011;18639;50.716;7.086;2022-10-31T08:48:19;5.30;;;2.50;;
32130;SDS011;18639;50.716;7.086;2022-10-31T08:50:45;3.40;;;1.77;;
32130;SDS011;18639;50.716;7.086;2022-10-31T08:53:15;5.30;;;2.22;;
32130;SDS011;18639;50.716;7.086;2022-10-31T08:55:41;3.80;;;1.77;;
32130;SDS011;18639;50.716;7.086;2022-10-31T08:58:15;7.03;;;2.35;;
32130;SDS011;18639;50.716;7.086;2022-10-31T09:00:42;9.40;;;2.70;;
32130;SDS011;18639;50.716;7.086;2022-10-31T09:03:17;5.00;;;2.22;;
32130;SDS011;18639;50.716;7.086;2022-10-31T09:05:45;8.57;;;2.50;;
32130;SDS011;18639;50.716;7.086;2022-10-31T09:08:11;4.32;;;2.10;;
32130;SDS011;18639;50.716;7.086;2022-10-31T09:10:36;4.88;;;1.92;;
32130;SDS011;18639;50.716;7.086;2022-10-31T09:13:04;4.30;;;2.08;;
32130;SDS011;18639;50.716;7.086;2022-10-31T09:15:31;5.32;;;2.10;;
32130;SDS011;18639;50.716;7.086;2022-10-31T09:17:58;8.27;;;2.83;;
32130;SDS011;18639;50.716;7.086;2022-10-31T09:20:24;5.93;;;2.50;;
32130;SDS011;18639;50.716;7.086;2022-10-31T09:22:56;5.10;;;2.88;;
32130;SDS011;18639;50.716;7.086;2022-10-31T09:25:23;5.25;;;2.50;;
32130;SDS011;18639;50.716;7.086;2022-10-31T09:27:48;5.03;;;2.25;;
32130;SDS011;18639;50.716;7.086;2022-10-31T09:30:13;7.68;;;2.47;;
32130;SDS011;18639;50.716;7.086;2022-10-31T09:32:38;5.43;;;2.78;;
32130;SDS011;18639;50.716;7.086;2022-10-31T09:35:04;7.00;;;2.25;;
32130;SDS011;18639;50.716;7.086;2022-10-31T09:37:29;5.30;;;1.95;;
32130;SDS011;18639;50.716;7.086;2022-10-31T09:39:55;6.95;;;2.25;;
32130;SDS011;18639;50.716;7.086;2022-10-31T09:42:26;5.00;;;2.33;;
32130;SDS011;18639;50.716;7.086;2022-10-31T09:45:13;4.43;;;2.20;;
32130;SDS011;18639;50.716;7.086;2022-10-31T09:55:47;7.00;;;2.25;;
32130;SDS011;18639;50.716;7.086;2022-10-31T09:58:26;6.63;;;2.38;;
32130;SDS011;18639;50.716;7.086;2022-10-31T10:00:54;5.32;;;2.38;;
32130;SDS011;18639;50.716;7.086;2022-10-31T10:03:32;4.53;;;2.30;;
32130;SDS011;18639;50.716;7.086;2022-10-31T10:08:39;4.85;;;2.55;;
32130;SDS011;18639;50.716;7.086;2022-10-31T10:27:44;5.18;;;2.55;;
32130;SDS011;18639;50.716;7.086;2022-10-31T10:30:32;7.90;;;2.97;;
32130;SDS011;18639;50.716;7.086;2022-10-31T10:32:59;8.57;;;2.72;;
32130;SDS011;18639;50.716;7.086;2022-10-31T10:35:32;7.13;;;2.47;;
32130;SDS011;18639;50.716;7.086;2022-10-31T10:38:02;6.10;;;2.80;;
32130;SDS011;18639;50.716;7.086;2022-10-31T10:40:35;4.95;;;2.40;;
32130;SDS011;18639;50.716;7.086;2022-10-31T10:49:17;5.28;;;2.55;;
32130;SDS011;18639;50.716;7.086;2022-10-31T10:54:46;9.05;;;2.28;;
32130;SDS011;18639;50.716;7.086;2022-10-31T11:00:14;5.20;;;2.33;;
32130;SDS011;18639;50.716;7.086;2022-10-31T11:02:45;5.43;;;1.98;;
32130;SDS011;18639;50.716;7.086;2022-10-31T11:05:15;6.35;;;2.00;;
32130;SDS011;18639;50.716;7.086;2022-10-31T11:07:47;4.60;;;1.98;;
32130;SDS011;18639;50.716;7.086;2022-10-31T11:10:13;3.83;;;1.50;;
32130;SDS011;18639;50.716;7.086;2022-10-31T11:12:40;4.25;;;1.83;;
32130;SDS011;18639;50.716;7.086;2022-10-31T11:15:15;4.78;;;1.92;;
32130;SDS011;18639;50.716;7.086;2022-10-31T11:17:46;4.53;;;1.50;;
32130;SDS011;18639;50.716;7.086;2022-10-31T11:22:43;2.67;;;1.50;;
32130;SDS011;18639;50.716;7.086;2022-10-31T11:25:24;4.18;;;1.27;;
32130;SDS011;18639;50.716;7.086;2022-10-31T11:28:08;7.75;;;1.70;;
32130;SDS011;18639;50.716;7.086;2022-10-31T11:33:36;3.60;;;1.45;;
32130;SDS011;18639;50.716;7.086;2022-10-31T11:36:14;3.63;;;1.40;;
32130;SDS011;18639;50.716;7.086;2022-10-31T11:38:43;2.58;;;1.45;;
32130;SDS011;18639;50.716;7.086;2022-10-31T11:41:16;4.65;;;1.60;;
32130;SDS011;18639;50.716;7.086;2022-10-31T11:43:50;3.05;;;1.83;;
32130;SDS011;18639;50.716;7.086;2022-10-31T11:46:20;2.80;;;1.50;;
32130;SDS011;18639;50.716;7.086;2022-10-31T11:48:52;5.13;;;1.58;;
32130;SDS011;18639;50.716;7.086;2022-10-31T11:51:20;3.30;;;1.88;;
32130;SDS011;18639;50.716;7.086;2022-10-31T11:53:52;2.67;;;1.25;;
32130;SDS011;18639;50.716;7.086;2022-10-31T11:56:20;2.10;;;1.42;;
32130;SDS011;18639;50.716;7.086;2022-10-31T11:59:01;6.57;;;1.55;;
32130;SDS011;18639;50.716;7.086;2022-10-31T12:01:29;3.25;;;1.70;;
32130;SDS011;18639;50.716;7.086;2022-10-31T12:04:03;2.75;;;1.30;;
32130;SDS011;18639;50.716;7.086;2022-10-31T12:06:38;4.13;;;1.90;;
32130;SDS011;18639;50.716;7.086;2022-10-31T12:14:35;2.20;;;1.50;;
32130;SDS011;18639;50.716;7.086;2022-10-31T12:22:29;3.00;;;1.75;;
32130;SDS011;18639;50.716;7.086;2022-10-31T12:25:09;3.67;;;1.60;;
32130;SDS011;18639;50.716;7.086;2022-10-31T12:27:59;2.90;;;1.75;;
32130;SDS011;18639;50.716;7.086;2022-10-31T12:36:17;2.33;;;1.30;;
32130;SDS011;18639;50.716;7.086;2022-10-31T12:41:51;2.53;;;1.38;;
32130;SDS011;18639;50.716;7.086;2022-10-31T12:49:58;2.47;;;1.40;;
32130;SDS011;18639;50.716;7.086;2022-10-31T12:58:37;3.53;;;1.20;;
32130;SDS011;18639;50.716;7.086;2022-10-31T13:01:44;3.10;;;1.48;;
32130;SDS011;18639;50.716;7.086;2022-10-31T13:04:18;2.80;;;1.50;;
32130;SDS011;18639;50.716;7.086;2022-10-31T13:06:47;3.10;;;1.45;;
32130;SDS011;18639;50.716;7.086;2022-10-31T13:09:19;2.65;;;1.25;;
32130;SDS011;18639;50.716;7.086;2022-10-31T13:11:56;2.90;;;1.58;;
32130;SDS011;18639;50.716;7.086;2022-10-31T13:14:29;2.40;;;1.45;;
32130;SDS011;18639;50.716;7.086;2022-10-31T13:17:11;2.33;;;1.30;;
32130;SDS011;18639;50.716;7.086;2022-10-31T13:20:16;5.65;;;1.60;;
32130;SDS011;18639;50.716;7.086;2022-10-31T13:22:49;3.28;;;1.25;;
32130;SDS011;18639;50.716;7.086;2022-10-31T13:25:23;3.25;;;1.48;;
32130;SDS011;18639;50.716;7.086;2022-10-31T13:28:01;2.40;;;1.27;;
32130;SDS011;18639;50.716;7.086;2022-10-31T13:30:31;3.97;;;2.35;;
32130;SDS011;18639;50.716;7.086;2022-10-31T13:33:05;3.42;;;1.90;;
32130;SDS011;18639;50.716;7.086;2022-10-31T13:35:44;4.18;;;1.35;;
32130;SDS011;18639;50.716;7.086;2022-10-31T13:40:57;2.45;;;1.20;;
32130;SDS011;18639;50.716;7.086;2022-10-31T13:43:36;4.38;;;1.92;;
32130;SDS011;18639;50.716;7.086;2022-10-31T13:48:57;3.85;;;1.52;;
32130;SDS011;18639;50.716;7.086;2022-10-31T13:51:26;2.75;;;1.17;;
32130;SDS011;18639;50.716;7.086;2022-10-31T13:54:39;1.70;;;1.17;;
32130;SDS011;18639;50.716;7.086;2022-10-31T13:59:55;2.05;;;1.20;;
32130;SDS011;18639;50.716;7.086;2022-10-31T14:02:50;4.45;;;1.45;;
32130;SDS011;18639;50.716;7.086;2022-10-31T14:07:54;2.30;;;1.13;;
32130;SDS011;18639;50.716;7.086;2022-10-31T14:10:32;2.42;;;1.20;;
32130;SDS011;18639;50.716;7.086;2022-10-31T14:16:23;1.83;;;1.10;;
32130;SDS011;18639;50.716;7.086;2022-10-31T14:19:21;3.13;;;1.20;;
32130;SDS011;18639;50.716;7.086;2022-10-31T14:22:18;3.78;;;1.70;;
32130;SDS011;18639;50.716;7.086;2022-10-31T14:28:51;2.63;;;1.20;;
32130;SDS011;18639;50.716;7.086;2022-10-31T14:31:39;2.50;;;1.10;;
32130;SDS011;18639;50.716;7.086;2022-10-31T14:36:42;4.00;;;1.60;;
32130;SDS011;18639;50.716;7.086;2022-10-31T14:45:13;2.22;;;1.17;;
32130;SDS011;18639;50.716;7.086;2022-10-31T14:47:44;2.85;;;1.25;;
32130;SDS011;18639;50.716;7.086;2022-10-31T14:50:29;1.98;;;1.20;;
32130;SDS011;18639;50.716;7.086;2022-10-31T14:53:04;4.85;;;1.63;;
32130;SDS011;18639;50.716;7.086;2022-10-31T14:55:31;3.97;;;2.05;;
32130;SDS011;18639;50.716;7.086;2022-10-31T14:57:58;4.53;;;1.00;;
32130;SDS011;18639;50.716;7.086;2022-10-31T15:00:30;3.95;;;1.30;;
32130;SDS011;18639;50.716;7.086;2022-10-31T15:06:01;3.35;;;1.20;;
32130;SDS011;18639;50.716;7.086;2022-10-31T15:08:38;2.97;;;1.52;;
32130;SDS011;18639;50.716;7.086;2022-10-31T15:11:15;5.28;;;1.30;;
32130;SDS011;18639;50.716;7.086;2022-10-31T15:13:51;2.97;;;1.13;;
32130;SDS011;18639;50.716;7.086;2022-10-31T15:16:28;1.90;;;0.90;;
32130;SDS011;18639;50.716;7.086;2022-10-31T15:19:04;3.22;;;1.23;;
32130;SDS011;18639;50.716;7.086;2022-10-31T15:21:32;3.25;;;1.30;;
32130;SDS011;18639;50.716;7.086;2022-10-31T15:23:58;1.58;;;0.88;;
32130;SDS011;18639;50.716;7.086;2022-10-31T15:26:31;4.82;;;1.30;;
32130;SDS011;18639;50.716;7.086;2022-10-31T15:29:00;1.77;;;1.00;;
32130;SDS011;18639;50.716;7.086;2022-10-31T15:31:30;4.45;;;1.20;;
32130;SDS011;18639;50.716;7.086;2022-10-31T15:33:56;3.53;;;1.20;;
32130;SDS011;18639;50.716;7.086;2022-10-31T15:36:28;2.55;;;1.40;;
32130;SDS011;18639;50.716;7.086;2022-10-31T15:38:57;2.30;;;1.23;;
32130;SDS011;18639;50.716;7.086;2022-10-31T15:43:51;4.28;;;1.58;;
32130;SDS011;18639;50.716;7.086;2022-10-31T15:46:16;4.38;;;1.80;;
32130;SDS011;18639;50.716;7.086;2022-10-31T15:48:48;4.00;;;1.30;;
32130;SDS011;18639;50.716;7.086;2022-10-31T15:51:13;1.73;;;1.10;;
32130;SDS011;18639;50.716;7.086;2022-10-31T15:53:43;3.05;;;1.38;;
32130;SDS011;18639;50.716;7.086;2022-10-31T15:56:18;3.63;;;1.45;;
32130;SDS011;18639;50.716;7.086;2022-10-31T15:58:47;3.20;;;1.30;;
32130;SDS011;18639;50.716;7.086;2022-10-31T16:01:33;2.95;;;1.10;;
32130;SDS011;18639;50.716;7.086;2022-10-31T16:04:03;1.40;;;1.00;;
32130;SDS011;18639;50.716;7.086;2022-10-31T16:06:35;1.83;;;1.10;;
32130;SDS011;18639;50.716;7.086;2022-10-31T16:09:00;4.18;;;1.38;;
32130;SDS011;18639;50.716;7.086;2022-10-31T16:11:34;8.07;;;1.40;;
32130;SDS011;18639;50.716;7.086;2022-10-31T16:16:33;4.57;;;1.30;;
32130;SDS011;18639;50.716;7.086;2022-10-31T16:19:11;2.53;;;1.35;;
32130;SDS011;18639;50.716;7.086;2022-10-31T16:21:41;2.17;;;1.00;;
32130;SDS011;18639;50.716;7.086;2022-10-31T16:26:50;2.00;;;1.15;;
32130;SDS011;18639;50.716;7.086;2022-10-31T16:29:25;4.70;;;1.33;;
32130;SDS011;18639;50.716;7.086;2022-10-31T16:31:58;5.40;;;1.25;;
32130;SDS011;18639;50.716;7.086;2022-10-31T16:34:24;4.78;;;1.70;;
32130;SDS011;18639;50.716;7.086;2022-10-31T16:36:49;2.33;;;1.20;;
32130;SDS011;18639;50.716;7.086;2022-10-31T16:39:15;3.20;;;1.20;;
32130;SDS011;18639;50.716;7.086;2022-10-31T16:41:46;4.15;;;1.58;;
32130;SDS011;18639;50.716;7.086;2022-10-31T16:44:23;2.78;;;1.30;;
32130;SDS011;18639;50.716;7.086;2022-10-31T16:49:31;2.00;;;1.15;;
32130;SDS011;18639;50.716;7.086;2022-10-31T16:51:56;4.22;;;1.63;;
32130;SDS011;18639;50.716;7.086;2022-10-31T16:54:21;2.05;;;1.13;;
32130;SDS011;18639;50.716;7.086;2022-10-31T16:56:46;4.97;;;1.10;;
32130;SDS011;18639;50.716;7.086;2022-10-31T16:59:12;2.58;;;1.38;;
32130;SDS011;18639;50.716;7.086;2022-10-31T17:01:38;1.80;;;1.00;;
32130;SDS011;18639;50.716;7.086;2022-10-31T17:04:04;2.60;;;1.25;;
32130;SDS011;18639;50.716;7.086;2022-10-31T17:06:29;2.42;;;1.23;;
32130;SDS011;18639;50.716;7.086;2022-10-31T17:08:55;3.25;;;1.10;;
32130;SDS011;18639;50.716;7.086;2022-10-31T17:11:21;3.35;;;1.42;;
32130;SDS011;18639;50.716;7.086;2022-10-31T17:13:49;2.40;;;0.98;;
32130;SDS011;18639;50.716;7.086;2022-10-31T17:16:14;1.83;;;1.05;;
32130;SDS011;18639;50.716;7.086;2022-10-31T17:18:40;1.35;;;1.00;;